sensor_id;sensor_type;location;lat;lon;timestamp;P1;durP1;ratioP1;P2;durP2;ratioP2
37339;SDS011;23223;51.006;7.610;2022-07-23T00:01:54;9.88;;;7.90;;
37339;SDS011;23223;51.006;7.610;2022-07-23T00:04:20;10.85;;;9.70;;
37339;SDS011;23223;51.006;7.610;2022-07-23T00:06:45;11.82;;;9.77;;
37339;SDS011;23223;51.006;7.610;2022-07-23T00:09:11;12.43;;;7.90;;
37339;SDS011;23223;51.006;7.610;2022-07-23T00:11:36;11.45;;;9.38;;
37339;SDS011;23223;51.006;7.610;2022-07-23T00:14:02;11.25;;;7.93;;
37339;SDS011;23223;51.006;7.610;2022-07-23T00:16:28;18.92;;;11.40;;
37339;SDS011;23223;51.006;7.610;2022-07-23T00:18:54;15.65;;;11.43;;
37339;SDS011;23223;51.006;7.610;2022-07-23T00:21:19;14.60;;;9.65;;
37339;SDS011;23223;51.006;7.610;2022-07-23T00:23:45;20.58;;;12.23;;
37339;SDS011;23223;51.006;7.610;2022-07-23T00:26:10;23.73;;;11.70;;
37339;SDS011;23223;51.006;7.610;2022-07-23T00:28:36;15.75;;;12.13;;
37339;SDS011;23223;51.006;7.610;2022-07-23T00:31:01;16.15;;;12.45;;
37339;SDS011;23223;51.006;7.610;2022-07-23T00:33:27;18.55;;;12.73;;
37339;SDS011;23223;51.006;7.610;2022-07-23T00:35:53;19.00;;;13.50;;
37339;SDS011;23223;51.006;7.610;2022-07-23T00:38:18;18.00;;;13.27;;
37339;SDS011;23223;51.006;7.610;2022-07-23T00:40:44;18.02;;;13.07;;
37339;SDS011;23223;51.006;7.610;2022-07-23T00:43:09;24.10;;;13.27;;
37339;SDS011;23223;51.006;7.610;2022-07-23T00:45:35;17.40;;;12.55;;
37339;SDS011;23223;51.006;7.610;2022-07-23T00:48:00;17.88;;;11.18;;
37339;SDS011;23223;51.006;7.610;2022-07-23T00:50:26;19.95;;;13.57;;
37339;SDS011;23223;51.006;7.610;2022-07-23T00:52:53;17.83;;;13.07;;
37339;SDS011;23223;51.006;7.610;2022-07-23T00:55:19;21.10;;;14.68;;
37339;SDS011;23223;51.006;7.610;2022-07-23T00:57:44;19.73;;;14.02;;
37339;SDS011;23223;51.006;7.610;2022-07-23T01:00:12;20.40;;;14.82;;
37339;SDS011;23223;51.006;7.610;2022-07-23T01:02:39;20.45;;;14.07;;
37339;SDS011;23223;51.006;7.610;2022-07-23T01:05:06;18.83;;;14.52;;
37339;SDS011;23223;51.006;7.610;2022-07-23T01:07:32;22.90;;;14.45;;
37339;SDS011;23223;51.006;7.610;2022-07-23T01:09:58;19.27;;;11.52;;
37339;SDS011;23223;51.006;7.610;2022-07-23T01:12:25;15.52;;;9.43;;
37339;SDS011;23223;51.006;7.610;2022-07-23T01:14:59;16.70;;;12.15;;
37339;SDS011;23223;51.006;7.610;2022-07-23T01:17:25;15.65;;;11.25;;
37339;SDS011;23223;51.006;7.610;2022-07-23T01:19:51;16.00;;;11.73;;
37339;SDS011;23223;51.006;7.610;2022-07-23T01:22:18;16.38;;;11.90;;
37339;SDS011;23223;51.006;7.610;2022-07-23T01:24:44;17.83;;;12.43;;
37339;SDS011;23223;51.006;7.610;2022-07-23T01:27:10;16.42;;;11.95;;
37339;SDS011;23223;51.006;7.610;2022-07-23T01:29:37;15.00;;;11.43;;
37339;SDS011;23223;51.006;7.610;2022-07-23T01:32:03;16.15;;;11.13;;
37339;SDS011;23223;51.006;7.610;2022-07-23T01:34:30;14.75;;;12.07;;
37339;SDS011;23223;51.006;7.610;2022-07-23T01:36:55;17.75;;;12.50;;
37339;SDS011;23223;51.006;7.610;2022-07-23T01:39:21;19.10;;;12.40;;
37339;SDS011;23223;51.006;7.610;2022-07-23T01:41:46;20.92;;;10.80;;
37339;SDS011;23223;51.006;7.610;2022-07-23T01:44:12;17.33;;;12.80;;
37339;SDS011;23223;51.006;7.610;2022-07-23T01:46:38;16.92;;;12.52;;
37339;SDS011;23223;51.006;7.610;2022-07-23T01:49:04;17.73;;;12.52;;
37339;SDS011;23223;51.006;7.610;2022-07-23T01:51:29;22.50;;;10.95;;
37339;SDS011;23223;51.006;7.610;2022-07-23T01:53:55;15.55;;;11.40;;
37339;SDS011;23223;51.006;7.610;2022-07-23T01:56:20;14.10;;;10.10;;
37339;SDS011;23223;51.006;7.610;2022-07-23T01:58:47;11.43;;;8.77;;
37339;SDS011;23223;51.006;7.610;2022-07-23T02:01:13;10.20;;;7.78;;
37339;SDS011;23223;51.006;7.610;2022-07-23T02:03:38;13.55;;;9.75;;
37339;SDS011;23223;51.006;7.610;2022-07-23T02:06:04;16.05;;;10.38;;
37339;SDS011;23223;51.006;7.610;2022-07-23T02:08:29;16.52;;;11.75;;
37339;SDS011;23223;51.006;7.610;2022-07-23T02:10:55;12.98;;;10.45;;
37339;SDS011;23223;51.006;7.610;2022-07-23T02:13:20;14.55;;;11.02;;
37339;SDS011;23223;51.006;7.610;2022-07-23T02:15:46;15.50;;;11.60;;
37339;SDS011;23223;51.006;7.610;2022-07-23T02:18:12;15.80;;;11.38;;
37339;SDS011;23223;51.006;7.610;2022-07-23T02:20:37;21.77;;;12.13;;
37339;SDS011;23223;51.006;7.610;2022-07-23T02:23:03;19.58;;;11.88;;
37339;SDS011;23223;51.006;7.610;2022-07-23T02:25:29;17.55;;;12.15;;
37339;SDS011;23223;51.006;7.610;2022-07-23T02:27:55;12.63;;;10.25;;
37339;SDS011;23223;51.006;7.610;2022-07-23T02:30:20;14.65;;;11.55;;
37339;SDS011;23223;51.006;7.610;2022-07-23T02:32:46;18.38;;;11.70;;
37339;SDS011;23223;51.006;7.610;2022-07-23T02:35:11;16.13;;;12.45;;
37339;SDS011;23223;51.006;7.610;2022-07-23T02:37:37;18.30;;;12.75;;
37339;SDS011;23223;51.006;7.610;2022-07-23T02:40:03;16.20;;;11.57;;
37339;SDS011;23223;51.006;7.610;2022-07-23T02:42:28;10.05;;;8.60;;
37339;SDS011;23223;51.006;7.610;2022-07-23T02:44:54;18.75;;;12.18;;
37339;SDS011;23223;51.006;7.610;2022-07-23T02:47:19;16.40;;;11.57;;
37339;SDS011;23223;51.006;7.610;2022-07-23T02:49:45;13.38;;;8.38;;
37339;SDS011;23223;51.006;7.610;2022-07-23T02:52:11;13.25;;;9.68;;
37339;SDS011;23223;51.006;7.610;2022-07-23T02:54:37;15.15;;;10.98;;
37339;SDS011;23223;51.006;7.610;2022-07-23T02:57:03;15.70;;;11.00;;
37339;SDS011;23223;51.006;7.610;2022-07-23T02:59:29;18.77;;;11.75;;
37339;SDS011;23223;51.006;7.610;2022-07-23T03:01:55;16.63;;;11.00;;
37339;SDS011;23223;51.006;7.610;2022-07-23T03:04:20;15.07;;;10.00;;
37339;SDS011;23223;51.006;7.610;2022-07-23T03:06:46;20.92;;;11.15;;
37339;SDS011;23223;51.006;7.610;2022-07-23T03:09:11;15.52;;;10.23;;
37339;SDS011;23223;51.006;7.610;2022-07-23T03:11:37;14.82;;;10.52;;
37339;SDS011;23223;51.006;7.610;2022-07-23T03:14:03;17.50;;;10.90;;
37339;SDS011;23223;51.006;7.610;2022-07-23T03:16:28;15.60;;;10.40;;
37339;SDS011;23223;51.006;7.610;2022-07-23T03:18:54;22.50;;;11.02;;
37339;SDS011;23223;51.006;7.610;2022-07-23T03:21:19;21.33;;;11.60;;
37339;SDS011;23223;51.006;7.610;2022-07-23T03:23:45;15.50;;;9.80;;
37339;SDS011;23223;51.006;7.610;2022-07-23T03:26:10;14.75;;;10.50;;
37339;SDS011;23223;51.006;7.610;2022-07-23T03:28:36;13.43;;;9.38;;
37339;SDS011;23223;51.006;7.610;2022-07-23T03:31:01;16.27;;;10.88;;
37339;SDS011;23223;51.006;7.610;2022-07-23T03:33:27;15.85;;;10.27;;
37339;SDS011;23223;51.006;7.610;2022-07-23T03:35:52;14.70;;;9.90;;
37339;SDS011;23223;51.006;7.610;2022-07-23T03:38:18;16.10;;;11.05;;
37339;SDS011;23223;51.006;7.610;2022-07-23T03:40:44;16.98;;;10.75;;
37339;SDS011;23223;51.006;7.610;2022-07-23T03:43:10;17.17;;;10.60;;
37339;SDS011;23223;51.006;7.610;2022-07-23T03:45:35;15.07;;;9.48;;
37339;SDS011;23223;51.006;7.610;2022-07-23T03:48:01;17.85;;;11.40;;
37339;SDS011;23223;51.006;7.610;2022-07-23T03:50:26;18.52;;;11.32;;
37339;SDS011;23223;51.006;7.610;2022-07-23T03:52:52;14.18;;;10.73;;
37339;SDS011;23223;51.006;7.610;2022-07-23T03:55:18;14.82;;;11.18;;
37339;SDS011;23223;51.006;7.610;2022-07-23T03:57:44;15.98;;;11.68;;
37339;SDS011;23223;51.006;7.610;2022-07-23T04:00:10;17.92;;;10.82;;
37339;SDS011;23223;51.006;7.610;2022-07-23T04:02:37;15.48;;;10.18;;
37339;SDS011;23223;51.006;7.610;2022-07-23T04:05:03;14.15;;;10.88;;
37339;SDS011;23223;51.006;7.610;2022-07-23T04:07:29;18.65;;;10.45;;
37339;SDS011;23223;51.006;7.610;2022-07-23T04:09:55;19.23;;;11.90;;
37339;SDS011;23223;51.006;7.610;2022-07-23T04:12:21;20.38;;;12.25;;
37339;SDS011;23223;51.006;7.610;2022-07-23T04:14:46;19.58;;;11.55;;
37339;SDS011;23223;51.006;7.610;2022-07-23T04:17:12;13.93;;;9.13;;
37339;SDS011;23223;51.006;7.610;2022-07-23T04:19:38;22.67;;;10.90;;
37339;SDS011;23223;51.006;7.610;2022-07-23T04:22:08;13.27;;;10.70;;
37339;SDS011;23223;51.006;7.610;2022-07-23T04:24:35;20.45;;;10.77;;
37339;SDS011;23223;51.006;7.610;2022-07-23T04:27:01;15.63;;;10.50;;
37339;SDS011;23223;51.006;7.610;2022-07-23T04:29:28;16.73;;;12.15;;
37339;SDS011;23223;51.006;7.610;2022-07-23T04:31:53;17.88;;;11.20;;
37339;SDS011;23223;51.006;7.610;2022-07-23T04:34:19;14.05;;;11.15;;
37339;SDS011;23223;51.006;7.610;2022-07-23T04:36:45;17.55;;;11.00;;
37339;SDS011;23223;51.006;7.610;2022-07-23T04:39:11;15.43;;;10.85;;
37339;SDS011;23223;51.006;7.610;2022-07-23T04:41:36;16.27;;;11.18;;
37339;SDS011;23223;51.006;7.610;2022-07-23T04:44:02;16.08;;;9.63;;
37339;SDS011;23223;51.006;7.610;2022-07-23T04:46:28;16.35;;;10.80;;
37339;SDS011;23223;51.006;7.610;2022-07-23T04:48:54;16.70;;;10.77;;
37339;SDS011;23223;51.006;7.610;2022-07-23T04:51:19;15.98;;;11.05;;
37339;SDS011;23223;51.006;7.610;2022-07-23T04:53:45;17.00;;;11.25;;
37339;SDS011;23223;51.006;7.610;2022-07-23T04:56:10;16.55;;;11.30;;
37339;SDS011;23223;51.006;7.610;2022-07-23T04:58:36;15.90;;;11.13;;
37339;SDS011;23223;51.006;7.610;2022-07-23T05:01:02;17.10;;;10.43;;
37339;SDS011;23223;51.006;7.610;2022-07-23T05:03:28;14.23;;;9.73;;
37339;SDS011;23223;51.006;7.610;2022-07-23T05:05:54;17.73;;;11.60;;
37339;SDS011;23223;51.006;7.610;2022-07-23T05:08:19;13.68;;;10.18;;
37339;SDS011;23223;51.006;7.610;2022-07-23T05:10:45;14.70;;;10.27;;
37339;SDS011;23223;51.006;7.610;2022-07-23T05:13:11;31.38;;;11.80;;
37339;SDS011;23223;51.006;7.610;2022-07-23T05:15:36;13.70;;;10.60;;
37339;SDS011;23223;51.006;7.610;2022-07-23T05:18:02;15.65;;;10.93;;
37339;SDS011;23223;51.006;7.610;2022-07-23T05:20:28;17.42;;;10.88;;
37339;SDS011;23223;51.006;7.610;2022-07-23T05:22:53;17.77;;;11.30;;
37339;SDS011;23223;51.006;7.610;2022-07-23T05:25:19;13.85;;;10.73;;
37339;SDS011;23223;51.006;7.610;2022-07-23T05:27:45;15.60;;;10.60;;
37339;SDS011;23223;51.006;7.610;2022-07-23T05:30:10;18.02;;;11.75;;
37339;SDS011;23223;51.006;7.610;2022-07-23T05:32:36;15.48;;;10.63;;
37339;SDS011;23223;51.006;7.610;2022-07-23T05:35:02;16.88;;;11.15;;
37339;SDS011;23223;51.006;7.610;2022-07-23T05:37:29;15.77;;;10.98;;
37339;SDS011;23223;51.006;7.610;2022-07-23T05:39:55;18.05;;;11.57;;
37339;SDS011;23223;51.006;7.610;2022-07-23T05:42:20;14.70;;;11.07;;
37339;SDS011;23223;51.006;7.610;2022-07-23T05:44:46;12.18;;;7.57;;
37339;SDS011;23223;51.006;7.610;2022-07-23T05:47:11;19.10;;;10.73;;
37339;SDS011;23223;51.006;7.610;2022-07-23T05:49:37;16.50;;;12.00;;
37339;SDS011;23223;51.006;7.610;2022-07-23T05:52:06;10.43;;;8.13;;
37339;SDS011;23223;51.006;7.610;2022-07-23T05:54:34;13.80;;;9.80;;
37339;SDS011;23223;51.006;7.610;2022-07-23T05:57:00;14.93;;;11.65;;
37339;SDS011;23223;51.006;7.610;2022-07-23T05:59:26;18.58;;;12.00;;
37339;SDS011;23223;51.006;7.610;2022-07-23T06:01:51;11.93;;;9.15;;
37339;SDS011;23223;51.006;7.610;2022-07-23T06:04:17;14.63;;;10.68;;
37339;SDS011;23223;51.006;7.610;2022-07-23T06:06:42;18.25;;;10.55;;
37339;SDS011;23223;51.006;7.610;2022-07-23T06:09:08;14.85;;;9.80;;
37339;SDS011;23223;51.006;7.610;2022-07-23T06:11:35;16.25;;;11.63;;
37339;SDS011;23223;51.006;7.610;2022-07-23T06:14:00;18.15;;;12.25;;
37339;SDS011;23223;51.006;7.610;2022-07-23T06:16:26;20.48;;;11.80;;
37339;SDS011;23223;51.006;7.610;2022-07-23T06:18:51;20.42;;;13.20;;
37339;SDS011;23223;51.006;7.610;2022-07-23T06:21:17;16.83;;;11.35;;
37339;SDS011;23223;51.006;7.610;2022-07-23T06:23:42;16.83;;;11.48;;
37339;SDS011;23223;51.006;7.610;2022-07-23T06:26:08;16.65;;;11.43;;
37339;SDS011;23223;51.006;7.610;2022-07-23T06:28:33;16.17;;;10.65;;
37339;SDS011;23223;51.006;7.610;2022-07-23T06:30:59;18.00;;;10.82;;
37339;SDS011;23223;51.006;7.610;2022-07-23T06:33:24;17.98;;;12.48;;
37339;SDS011;23223;51.006;7.610;2022-07-23T06:35:50;19.08;;;11.48;;
37339;SDS011;23223;51.006;7.610;2022-07-23T06:38:15;15.00;;;10.55;;
37339;SDS011;23223;51.006;7.610;2022-07-23T06:40:41;14.18;;;10.05;;
37339;SDS011;23223;51.006;7.610;2022-07-23T06:43:06;18.73;;;10.40;;
37339;SDS011;23223;51.006;7.610;2022-07-23T06:45:32;12.50;;;9.95;;
37339;SDS011;23223;51.006;7.610;2022-07-23T06:47:57;13.60;;;9.73;;
37339;SDS011;23223;51.006;7.610;2022-07-23T06:50:24;16.65;;;10.35;;
37339;SDS011;23223;51.006;7.610;2022-07-23T06:52:49;13.30;;;8.48;;
37339;SDS011;23223;51.006;7.610;2022-07-23T06:55:15;13.45;;;8.70;;
37339;SDS011;23223;51.006;7.610;2022-07-23T06:57:40;16.40;;;8.88;;
37339;SDS011;23223;51.006;7.610;2022-07-23T07:00:06;13.43;;;8.05;;
37339;SDS011;23223;51.006;7.610;2022-07-23T07:02:33;8.20;;;5.03;;
37339;SDS011;23223;51.006;7.610;2022-07-23T07:04:58;6.90;;;4.13;;
37339;SDS011;23223;51.006;7.610;2022-07-23T07:07:24;6.10;;;3.42;;
37339;SDS011;23223;51.006;7.610;2022-07-23T07:09:49;5.22;;;3.60;;
37339;SDS011;23223;51.006;7.610;2022-07-23T07:12:15;5.10;;;3.22;;
37339;SDS011;23223;51.006;7.610;2022-07-23T07:14:40;5.43;;;3.20;;
37339;SDS011;23223;51.006;7.610;2022-07-23T07:17:06;5.45;;;3.20;;
37339;SDS011;23223;51.006;7.610;2022-07-23T07:19:31;6.35;;;2.67;;
37339;SDS011;23223;51.006;7.610;2022-07-23T07:21:57;5.22;;;3.22;;
37339;SDS011;23223;51.006;7.610;2022-07-23T07:24:22;4.05;;;2.88;;
37339;SDS011;23223;51.006;7.610;2022-07-23T07:26:48;5.88;;;3.50;;
37339;SDS011;23223;51.006;7.610;2022-07-23T07:29:13;4.05;;;2.55;;
37339;SDS011;23223;51.006;7.610;2022-07-23T07:31:39;7.72;;;4.18;;
37339;SDS011;23223;51.006;7.610;2022-07-23T07:34:05;6.13;;;3.42;;
37339;SDS011;23223;51.006;7.610;2022-07-23T07:36:30;3.90;;;2.45;;
37339;SDS011;23223;51.006;7.610;2022-07-23T07:38:56;6.03;;;3.88;;
37339;SDS011;23223;51.006;7.610;2022-07-23T07:41:21;6.13;;;3.67;;
37339;SDS011;23223;51.006;7.610;2022-07-23T07:43:49;4.68;;;3.20;;
37339;SDS011;23223;51.006;7.610;2022-07-23T07:46:15;5.43;;;3.13;;
37339;SDS011;23223;51.006;7.610;2022-07-23T07:48:41;5.05;;;2.50;;
37339;SDS011;23223;51.006;7.610;2022-07-23T07:51:07;4.25;;;2.78;;
37339;SDS011;23223;51.006;7.610;2022-07-23T07:53:33;3.38;;;2.40;;
37339;SDS011;23223;51.006;7.610;2022-07-23T07:55:58;5.10;;;2.60;;
37339;SDS011;23223;51.006;7.610;2022-07-23T07:58:24;5.57;;;2.80;;
37339;SDS011;23223;51.006;7.610;2022-07-23T08:00:49;3.17;;;1.70;;
37339;SDS011;23223;51.006;7.610;2022-07-23T08:03:16;3.10;;;2.00;;
37339;SDS011;23223;51.006;7.610;2022-07-23T08:05:42;6.35;;;2.67;;
37339;SDS011;23223;51.006;7.610;2022-07-23T08:08:07;5.78;;;2.10;;
37339;SDS011;23223;51.006;7.610;2022-07-23T08:10:34;4.65;;;2.78;;
37339;SDS011;23223;51.006;7.610;2022-07-23T08:13:00;4.05;;;2.85;;
37339;SDS011;23223;51.006;7.610;2022-07-23T08:15:27;4.10;;;2.95;;
37339;SDS011;23223;51.006;7.610;2022-07-23T08:17:55;3.13;;;2.15;;
37339;SDS011;23223;51.006;7.610;2022-07-23T08:20:21;5.30;;;2.50;;
37339;SDS011;23223;51.006;7.610;2022-07-23T08:25:24;6.68;;;2.97;;
37339;SDS011;23223;51.006;7.610;2022-07-23T08:27:54;7.00;;;2.78;;
37339;SDS011;23223;51.006;7.610;2022-07-23T08:30:20;4.15;;;2.20;;
37339;SDS011;23223;51.006;7.610;2022-07-23T08:32:49;3.95;;;2.97;;
37339;SDS011;23223;51.006;7.610;2022-07-23T08:35:18;4.30;;;2.72;;
37339;SDS011;23223;51.006;7.610;2022-07-23T08:37:48;4.68;;;2.20;;
37339;SDS011;23223;51.006;7.610;2022-07-23T08:40:13;5.43;;;3.33;;
37339;SDS011;23223;51.006;7.610;2022-07-23T08:42:39;3.30;;;2.28;;
37339;SDS011;23223;51.006;7.610;2022-07-23T08:45:05;5.43;;;2.28;;
37339;SDS011;23223;51.006;7.610;2022-07-23T08:47:32;4.93;;;3.10;;
37339;SDS011;23223;51.006;7.610;2022-07-23T08:49:59;4.30;;;2.13;;
37339;SDS011;23223;51.006;7.610;2022-07-23T08:52:26;6.00;;;4.03;;
37339;SDS011;23223;51.006;7.610;2022-07-23T08:54:52;3.85;;;2.53;;
37339;SDS011;23223;51.006;7.610;2022-07-23T08:57:18;4.20;;;2.42;;
37339;SDS011;23223;51.006;7.610;2022-07-23T08:59:44;3.35;;;2.03;;
37339;SDS011;23223;51.006;7.610;2022-07-23T09:02:10;4.22;;;2.28;;
37339;SDS011;23223;51.006;7.610;2022-07-23T09:04:36;2.78;;;1.88;;
37339;SDS011;23223;51.006;7.610;2022-07-23T09:07:02;3.88;;;1.83;;
37339;SDS011;23223;51.006;7.610;2022-07-23T09:09:28;4.45;;;1.80;;
37339;SDS011;23223;51.006;7.610;2022-07-23T09:12:06;3.10;;;1.77;;
37339;SDS011;23223;51.006;7.610;2022-07-23T09:14:44;3.17;;;1.77;;
37339;SDS011;23223;51.006;7.610;2022-07-23T09:17:14;2.88;;;2.00;;
37339;SDS011;23223;51.006;7.610;2022-07-23T09:19:42;1.88;;;1.45;;
37339;SDS011;23223;51.006;7.610;2022-07-23T09:22:22;4.10;;;2.05;;
37339;SDS011;23223;51.006;7.610;2022-07-23T09:25:02;6.13;;;2.53;;
37339;SDS011;23223;51.006;7.610;2022-07-23T09:27:55;6.18;;;2.20;;
37339;SDS011;23223;51.006;7.610;2022-07-23T09:30:23;4.13;;;1.70;;
37339;SDS011;23223;51.006;7.610;2022-07-23T09:38:11;2.95;;;1.73;;
37339;SDS011;23223;51.006;7.610;2022-07-23T09:40:38;3.33;;;1.90;;
37339;SDS011;23223;51.006;7.610;2022-07-23T09:43:03;4.18;;;1.75;;
37339;SDS011;23223;51.006;7.610;2022-07-23T09:45:29;3.95;;;1.65;;
37339;SDS011;23223;51.006;7.610;2022-07-23T09:48:14;3.45;;;2.10;;
37339;SDS011;23223;51.006;7.610;2022-07-23T09:50:41;3.97;;;2.08;;
37339;SDS011;23223;51.006;7.610;2022-07-23T09:53:08;2.72;;;1.92;;
37339;SDS011;23223;51.006;7.610;2022-07-23T09:55:35;2.00;;;1.48;;
37339;SDS011;23223;51.006;7.610;2022-07-23T09:58:05;2.97;;;1.40;;
37339;SDS011;23223;51.006;7.610;2022-07-23T10:00:34;2.90;;;1.10;;
37339;SDS011;23223;51.006;7.610;2022-07-23T10:03:00;3.30;;;1.45;;
37339;SDS011;23223;51.006;7.610;2022-07-23T10:05:27;2.80;;;1.70;;
37339;SDS011;23223;51.006;7.610;2022-07-23T10:07:54;2.78;;;1.67;;
37339;SDS011;23223;51.006;7.610;2022-07-23T10:10:20;2.05;;;1.27;;
37339;SDS011;23223;51.006;7.610;2022-07-23T10:12:48;2.90;;;1.60;;
37339;SDS011;23223;51.006;7.610;2022-07-23T10:15:17;2.20;;;1.27;;
37339;SDS011;23223;51.006;7.610;2022-07-23T10:17:43;2.50;;;1.35;;
37339;SDS011;23223;51.006;7.610;2022-07-23T10:20:09;3.75;;;1.27;;
37339;SDS011;23223;51.006;7.610;2022-07-23T10:22:35;2.22;;;1.60;;
37339;SDS011;23223;51.006;7.610;2022-07-23T10:28:16;1.83;;;1.50;;
37339;SDS011;23223;51.006;7.610;2022-07-23T10:34:02;3.30;;;1.20;;
37339;SDS011;23223;51.006;7.610;2022-07-23T10:36:41;3.75;;;2.28;;
37339;SDS011;23223;51.006;7.610;2022-07-23T10:39:26;2.55;;;2.13;;
37339;SDS011;23223;51.006;7.610;2022-07-23T10:44:39;2.53;;;1.20;;
37339;SDS011;23223;51.006;7.610;2022-07-23T10:47:10;3.50;;;1.60;;
37339;SDS011;23223;51.006;7.610;2022-07-23T10:49:45;2.08;;;1.23;;
37339;SDS011;23223;51.006;7.610;2022-07-23T10:54:40;3.42;;;1.70;;
37339;SDS011;23223;51.006;7.610;2022-07-23T10:57:06;2.75;;;2.28;;
37339;SDS011;23223;51.006;7.610;2022-07-23T11:02:47;2.22;;;1.35;;
37339;SDS011;23223;51.006;7.610;2022-07-23T11:05:19;1.40;;;1.27;;
37339;SDS011;23223;51.006;7.610;2022-07-23T11:10:36;3.25;;;1.13;;
37339;SDS011;23223;51.006;7.610;2022-07-23T11:26:40;6.30;;;1.77;;
37339;SDS011;23223;51.006;7.610;2022-07-23T11:35:00;3.78;;;1.85;;
37339;SDS011;23223;51.006;7.610;2022-07-23T11:37:11;5.30;;;1.73;;
37339;SDS011;23223;51.006;7.610;2022-07-23T11:39:52;3.38;;;2.08;;
37339;SDS011;23223;51.006;7.610;2022-07-23T11:42:22;3.83;;;1.85;;
37339;SDS011;23223;51.006;7.610;2022-07-23T11:44:49;2.33;;;2.05;;
37339;SDS011;23223;51.006;7.610;2022-07-23T11:47:15;4.10;;;1.77;;
37339;SDS011;23223;51.006;7.610;2022-07-23T11:49:59;4.45;;;1.50;;
37339;SDS011;23223;51.006;7.610;2022-07-23T11:52:28;2.20;;;1.60;;
37339;SDS011;23223;51.006;7.610;2022-07-23T11:55:12;3.22;;;1.88;;
37339;SDS011;23223;51.006;7.610;2022-07-23T11:57:41;3.20;;;2.40;;
37339;SDS011;23223;51.006;7.610;2022-07-23T12:00:17;3.30;;;2.17;;
37339;SDS011;23223;51.006;7.610;2022-07-23T12:03:02;3.70;;;2.50;;
37339;SDS011;23223;51.006;7.610;2022-07-23T12:05:32;3.70;;;2.28;;
37339;SDS011;23223;51.006;7.610;2022-07-23T12:08:00;3.03;;;1.73;;
37339;SDS011;23223;51.006;7.610;2022-07-23T12:10:28;3.38;;;1.92;;
37339;SDS011;23223;51.006;7.610;2022-07-23T12:12:59;4.72;;;2.22;;
37339;SDS011;23223;51.006;7.610;2022-07-23T12:15:30;2.80;;;2.47;;
37339;SDS011;23223;51.006;7.610;2022-07-23T12:18:03;2.92;;;2.28;;
37339;SDS011;23223;51.006;7.610;2022-07-23T12:20:32;4.00;;;2.30;;
37339;SDS011;23223;51.006;7.610;2022-07-23T12:23:00;2.45;;;2.25;;
37339;SDS011;23223;51.006;7.610;2022-07-23T12:25:29;3.20;;;2.38;;
37339;SDS011;23223;51.006;7.610;2022-07-23T12:30:28;3.38;;;1.92;;
37339;SDS011;23223;51.006;7.610;2022-07-23T12:33:11;3.20;;;2.47;;
37339;SDS011;23223;51.006;7.610;2022-07-23T12:35:42;4.40;;;3.10;;
37339;SDS011;23223;51.006;7.610;2022-07-23T12:38:14;4.38;;;2.80;;
37339;SDS011;23223;51.006;7.610;2022-07-23T12:43:18;3.25;;;2.60;;
37339;SDS011;23223;51.006;7.610;2022-07-23T12:46:11;4.30;;;2.80;;
37339;SDS011;23223;51.006;7.610;2022-07-23T13:06:33;3.08;;;2.78;;
37339;SDS011;23223;51.006;7.610;2022-07-23T13:09:04;5.03;;;3.42;;
37339;SDS011;23223;51.006;7.610;2022-07-23T13:11:31;4.30;;;3.50;;
37339;SDS011;23223;51.006;7.610;2022-07-23T13:13:57;3.03;;;2.75;;
37339;SDS011;23223;51.006;7.610;2022-07-23T13:16:23;5.18;;;3.45;;
37339;SDS011;23223;51.006;7.610;2022-07-23T13:18:48;5.53;;;3.33;;
37339;SDS011;23223;51.006;7.610;2022-07-23T13:21:14;3.58;;;3.17;;
37339;SDS011;23223;51.006;7.610;2022-07-23T13:23:39;3.40;;;2.83;;
37339;SDS011;23223;51.006;7.610;2022-07-23T13:26:06;5.05;;;3.55;;
37339;SDS011;23223;51.006;7.610;2022-07-23T13:28:32;4.10;;;3.70;;
37339;SDS011;23223;51.006;7.610;2022-07-23T13:30:57;3.80;;;3.40;;
37339;SDS011;23223;51.006;7.610;2022-07-23T13:33:23;6.25;;;3.88;;
37339;SDS011;23223;51.006;7.610;2022-07-23T13:35:50;6.50;;;3.75;;
37339;SDS011;23223;51.006;7.610;2022-07-23T13:38:17;4.18;;;3.13;;
37339;SDS011;23223;51.006;7.610;2022-07-23T13:40:43;3.72;;;3.30;;
37339;SDS011;23223;51.006;7.610;2022-07-23T13:43:11;6.45;;;3.95;;
37339;SDS011;23223;51.006;7.610;2022-07-23T13:45:39;6.35;;;3.80;;
37339;SDS011;23223;51.006;7.610;2022-07-23T13:48:07;4.90;;;3.83;;
37339;SDS011;23223;51.006;7.610;2022-07-23T13:50:33;5.75;;;3.90;;
37339;SDS011;23223;51.006;7.610;2022-07-23T13:53:00;4.10;;;3.70;;
37339;SDS011;23223;51.006;7.610;2022-07-23T13:55:31;4.40;;;3.50;;
37339;SDS011;23223;51.006;7.610;2022-07-23T13:57:57;9.93;;;4.00;;
37339;SDS011;23223;51.006;7.610;2022-07-23T14:00:24;12.25;;;4.47;;
37339;SDS011;23223;51.006;7.610;2022-07-23T14:02:50;5.60;;;4.32;;
37339;SDS011;23223;51.006;7.610;2022-07-23T14:05:16;6.43;;;3.90;;
37339;SDS011;23223;51.006;7.610;2022-07-23T14:07:41;6.13;;;3.72;;
37339;SDS011;23223;51.006;7.610;2022-07-23T14:10:09;4.20;;;3.40;;
37339;SDS011;23223;51.006;7.610;2022-07-23T14:12:35;8.52;;;3.70;;
37339;SDS011;23223;51.006;7.610;2022-07-23T14:15:02;5.03;;;4.15;;
37339;SDS011;23223;51.006;7.610;2022-07-23T14:17:29;7.10;;;3.75;;
37339;SDS011;23223;51.006;7.610;2022-07-23T14:19:56;2.40;;;2.20;;
37339;SDS011;23223;51.006;7.610;2022-07-23T14:22:22;3.67;;;3.33;;
37339;SDS011;23223;51.006;7.610;2022-07-23T14:24:48;6.13;;;4.07;;
37339;SDS011;23223;51.006;7.610;2022-07-23T14:27:14;4.13;;;3.25;;
37339;SDS011;23223;51.006;7.610;2022-07-23T14:29:40;3.88;;;3.55;;
37339;SDS011;23223;51.006;7.610;2022-07-23T14:32:05;6.18;;;3.58;;
37339;SDS011;23223;51.006;7.610;2022-07-23T14:34:31;5.35;;;3.50;;
37339;SDS011;23223;51.006;7.610;2022-07-23T14:36:57;6.93;;;4.10;;
37339;SDS011;23223;51.006;7.610;2022-07-23T14:39:24;4.30;;;3.90;;
37339;SDS011;23223;51.006;7.610;2022-07-23T14:41:49;4.15;;;3.75;;
37339;SDS011;23223;51.006;7.610;2022-07-23T14:44:15;6.18;;;4.13;;
37339;SDS011;23223;51.006;7.610;2022-07-23T14:46:40;7.05;;;4.30;;
37339;SDS011;23223;51.006;7.610;2022-07-23T14:49:06;6.07;;;4.30;;
37339;SDS011;23223;51.006;7.610;2022-07-23T14:51:32;6.70;;;4.00;;
37339;SDS011;23223;51.006;7.610;2022-07-23T14:53:57;4.97;;;4.50;;
37339;SDS011;23223;51.006;7.610;2022-07-23T14:56:23;6.32;;;4.47;;
37339;SDS011;23223;51.006;7.610;2022-07-23T14:58:49;4.38;;;3.97;;
37339;SDS011;23223;51.006;7.610;2022-07-23T15:01:14;3.65;;;3.33;;
37339;SDS011;23223;51.006;7.610;2022-07-23T15:03:40;3.83;;;3.47;;
37339;SDS011;23223;51.006;7.610;2022-07-23T15:06:06;4.68;;;3.60;;
37339;SDS011;23223;51.006;7.610;2022-07-23T15:08:32;4.00;;;3.20;;
37339;SDS011;23223;51.006;7.610;2022-07-23T15:10:58;5.25;;;4.00;;
37339;SDS011;23223;51.006;7.610;2022-07-23T15:13:23;7.20;;;3.85;;
37339;SDS011;23223;51.006;7.610;2022-07-23T15:15:49;6.22;;;3.35;;
37339;SDS011;23223;51.006;7.610;2022-07-23T15:18:14;7.82;;;4.38;;
37339;SDS011;23223;51.006;7.610;2022-07-23T15:20:41;6.53;;;4.18;;
37339;SDS011;23223;51.006;7.610;2022-07-23T15:23:07;5.20;;;3.85;;
37339;SDS011;23223;51.006;7.610;2022-07-23T15:25:32;5.28;;;3.53;;
37339;SDS011;23223;51.006;7.610;2022-07-23T15:27:58;5.10;;;3.42;;
37339;SDS011;23223;51.006;7.610;2022-07-23T15:30:24;7.75;;;4.13;;
37339;SDS011;23223;51.006;7.610;2022-07-23T15:32:51;5.18;;;3.00;;
37339;SDS011;23223;51.006;7.610;2022-07-23T15:35:16;5.22;;;3.22;;
37339;SDS011;23223;51.006;7.610;2022-07-23T15:37:42;7.90;;;3.60;;
37339;SDS011;23223;51.006;7.610;2022-07-23T15:40:08;6.40;;;3.03;;
37339;SDS011;23223;51.006;7.610;2022-07-23T15:42:34;5.95;;;3.42;;